Airfield :
LOGIN :

Register | Disclaimer

   EN    FR    IT 

 










Legend :    VFR   Marginal VFR   IFR   Intensive IFR   Very Intensive IFR
Visi :
Ceiling :
>= 8 km
>= 3000ft
5 to 8 km
1000 to 3000 ft
1500m to 5 km
500 to 1000 ft
800 to 1500m
200 to 500 ft
< 800m
< 200 ft
Symbols :   Thunderstorms  Fog  Heavy snow  Heavy precipitations  Wind > 20 kt
SIGMETs :     Misc.  Thunderstorms  Icing  Turbulence  Mountain Waves  Volcanic Ashes






- Airport Elevation : 162 ft
- IATA code : BOD


LFBD - Bordeaux / Merignac

CURRENT METAR :
  • 150630Z AUTO 26004KT 230V300 9999 SCT027/// BKN037/// BKN046/// ///CB 12/11 Q1013 TEMPO 4000 SHRA BECMG NSC

EXPIRED METARs :
  • 150600Z AUTO 27004KT 230V290 9999 BKN034/// BKN044/// BKN054/// ///TCU 12/11 Q1012 TEMPO 4000 SHRA BKN012 BKN035TCU
  • 150530Z AUTO 25007KT 9999 FEW013/// SCT062/// BKN092/// ///TCU 12/11 Q1012 TEMPO 4000 SHRA BKN012 BKN035TCU
  • 150500Z AUTO 22006KT 190V250 9999 3700 SCT019/// BKN028/// BKN047/// ///TCU 12/12 Q1012 TEMPO 2000 -TSRA BKN020CB
  • 150430Z AUTO 22006KT 190V250 7000 -RA FEW018/// SCT034/// BKN062/// ///TCU 12/11 Q1011 TEMPO 2000 -TSRA BKN020CB
  • 150400Z AUTO 19005KT 9999 FEW009/// BKN028/// BKN037/// ///TCU 12/12 Q1011 TEMPO 2000 -TSRA BKN020CB
  • 150330Z AUTO 18006KT 9999 -RA FEW005/// SCT031/// BKN048/// ///CB 12/12 Q1011 TEMPO 2000 -TSRA BKN012 BKN035TCU

TAF TAF LFBD
Valid from the 15 at 06:00 until the 16 at 12:00 UTC


150500Z 1506/1612 24008KT CAVOK TX18/1514Z TN12/1506Z
TEMPO 1506/1508 4000 SHRA BKN012 BKN035TCU
TEMPO 1510/1518 27015G25KT 4500 SHRA BKN040TCU
BECMG 1518/1520 17010KT
TEMPO 1608/1612 5000 -RA BKN040
ATIS : +33 5 57 92 81 04



MET'MAP, your aeronautical weather chart ! - Copyright ORBIFLY December 2007 - Disclaimer

ORBIFLY MET'MAP TEAM :

Programming & Development : Alexandra Zaïnal
Concept & Development : Baudouin d'Aumeries
Co-Development & Prog : Marc-Olivier Méhu
Technical & hardware support : Manuel Goepfert

Contact : metmap@orbifly.com




SOURCES & CREDITS :

   NOAA